McDaniel, Maryland
Current Conditions -  °F | °C
As of 5:27 AM on Saturday 22 Nov 2014 (Local Time) from KESN Reporting Station
Clear Clear  
Wind Chill: 23°   Ceiling: Unl
Heat Index: 23°   Visibility: 10mi
Dew Point: 18°   Wind: 0mph
Humidity: 83%   Direction: NA
Pressure: 30.57"   Gusts: NA
Location:  38.82°N, 76.28°W
Report Text: KESN 221027Z AUTO 00000KT 10SM CLR M05/M08 A3057 RMK AO2 T10511076
Loading
Personal Weather Stations






























Interactive Weather Map New forecast layout! Learn more

10-Day Weather Forecast

Advertisements
Track Severe Weather on mobile